Bellefontaine, Ohio
Current Conditions -  °F | °C
As of 5:30 AM on Monday 26 Jan 2015 (Local Time) from KEDJ Reporting Station
Broken Clouds Broken Clouds  
Wind Chill:   Ceiling: 900
Heat Index: 16°   Visibility: 10mi
Dew Point: 14°   Wind: 16mph
Humidity: 93%   Direction: 360°N
Pressure: 29.8"   Gusts: NA
Location:  40.36°N, 83.76°W
Report Text: KEDJ 261030Z AUTO 36014KT 10SM BKN009 M09/M10 A2980 RMK AO1
Loading
Personal Weather Stations






























Interactive Weather Map New forecast layout! Learn more

10-Day Weather Forecast

Advertisements
Track Severe Weather on mobile